createdAt,value
2016-03-17T00:00:51.371Z,46.34
2016-03-17T00:01:51.421Z,46.5
2016-03-17T00:02:51.486Z,46.43
2016-03-17T00:03:51.536Z,46.6
2016-03-17T00:04:51.570Z,46.41
2016-03-17T00:05:51.619Z,46.22
2016-03-17T00:06:51.684Z,46.6
2016-03-17T00:07:51.718Z,46.31
2016-03-17T00:08:51.767Z,46.22
2016-03-17T00:09:51.833Z,46.31
2016-03-17T00:10:51.866Z,46.31
2016-03-17T00:11:51.932Z,46.5
2016-03-17T00:12:51.982Z,46.41
2016-03-17T00:13:52.031Z,46.5
2016-03-17T00:14:52.096Z,46.79
2016-03-17T00:15:52.130Z,46.98
2016-03-17T00:16:52.180Z,47.17
2016-03-17T00:17:52.245Z,47.17
2016-03-17T00:18:52.280Z,47.17
2016-03-17T00:19:52.329Z,47.17
2016-03-17T00:20:52.394Z,47.27
2016-03-17T00:21:52.428Z,47.08
2016-03-17T00:22:52.477Z,46.98
2016-03-17T00:23:52.543Z,46.7
2016-03-17T00:24:52.593Z,46.7
2016-03-17T00:25:52.657Z,47.17
2016-03-17T00:26:52.690Z,46.98
2016-03-17T00:27:52.756Z,46.98
2016-03-17T00:28:52.806Z,46.79
2016-03-17T00:29:52.840Z,47.08
2016-03-17T00:30:52.906Z,46.89
2016-03-17T00:31:52.954Z,46.7
2016-03-17T00:32:52.989Z,46.89
2016-03-17T00:33:53.053Z,46.89
2016-03-17T00:34:53.103Z,46.89
2016-03-17T00:35:53.153Z,46.89
2016-03-17T00:36:53.203Z,47.27
2016-03-17T00:37:53.253Z,46.79
2016-03-17T00:38:53.317Z,46.98
2016-03-17T00:39:53.367Z,47.56
2016-03-17T00:40:53.400Z,47.37
2016-03-17T00:41:53.466Z,47.37
2016-03-17T00:42:53.499Z,47.37
2016-03-17T00:43:53.549Z,47.27
2016-03-17T00:44:53.623Z,47.27
2016-03-17T00:45:53.656Z,47.37
2016-03-17T00:46:53.706Z,47.37
2016-03-17T00:47:53.772Z,47.17
2016-03-17T00:48:53.806Z,47.27
2016-03-17T00:49:53.887Z,47.46
2016-03-17T00:50:53.920Z,47.27
2016-03-17T00:51:53.986Z,47.46
2016-03-17T00:52:54.020Z,47.17
2016-03-17T00:53:54.069Z,47.27
2016-03-17T00:54:54.119Z,47.17
2016-03-17T00:55:54.169Z,47.27
2016-03-17T00:56:54.219Z,47.27
2016-03-17T00:57:54.283Z,47.85
2016-03-17T00:58:54.333Z,47.27
2016-03-17T00:59:54.367Z,47.46
2016-03-17T01:00:54.416Z,47.66
2016-03-17T01:01:54.513Z,47.56
2016-03-17T01:02:54.532Z,47.46
2016-03-17T01:03:54.580Z,47.46
2016-03-17T01:04:54.615Z,47.37
2016-03-17T01:05:54.680Z,47.56
2016-03-17T01:06:54.740Z,47.46
2016-03-17T01:07:54.790Z,47.46
2016-03-17T01:08:54.824Z,47.56
2016-03-17T01:09:54.888Z,47.46
2016-03-17T01:10:54.938Z,47.46
2016-03-17T01:11:54.988Z,47.85
2016-03-17T01:12:55.054Z,47.75
2016-03-17T01:13:55.103Z,47.66
2016-03-17T01:14:55.152Z,47.94
2016-03-17T01:15:55.201Z,47.75
2016-03-17T01:16:55.237Z,47.94
2016-03-17T01:17:55.285Z,47.94
2016-03-17T01:18:55.351Z,48.13
2016-03-17T01:19:55.385Z,47.94
2016-03-17T01:20:55.450Z,47.94
2016-03-17T01:21:55.500Z,47.94
2016-03-17T01:22:55.564Z,48.13
2016-03-17T01:23:55.583Z,48.23
2016-03-17T01:24:55.648Z,48.43
2016-03-17T01:25:55.698Z,48.33
2016-03-17T01:26:55.747Z,48.33
2016-03-17T01:27:55.812Z,48.52
2016-03-17T01:28:55.862Z,48.33
2016-03-17T01:29:55.911Z,48.43
2016-03-17T01:30:55.945Z,48.33
2016-03-17T01:31:55.994Z,48.43
2016-03-17T01:32:56.060Z,48.43
2016-03-17T01:33:56.094Z,48.52
2016-03-17T01:34:56.143Z,48.13
2016-03-17T01:35:56.208Z,48.43
2016-03-17T01:36:56.258Z,48.43
2016-03-17T01:37:56.324Z,48.9
2016-03-17T01:38:56.374Z,48.33
2016-03-17T01:39:56.424Z,48.33
2016-03-17T01:40:56.472Z,48.33
2016-03-17T01:41:56.507Z,48.33
2016-03-17T01:42:56.557Z,48.23
2016-03-17T01:43:56.621Z,48.23
2016-03-17T01:44:56.655Z,48.8
2016-03-17T01:45:56.705Z,48.23
2016-03-17T01:46:56.770Z,49
2016-03-17T01:47:56.804Z,48.43
2016-03-17T01:48:56.868Z,48.23
2016-03-17T01:49:56.918Z,48.23
2016-03-17T01:50:56.968Z,48.9
2016-03-17T01:51:57.018Z,48.33
2016-03-17T01:52:57.099Z,48.43
2016-03-17T01:53:57.117Z,48.23
2016-03-17T01:54:57.167Z,48.33
2016-03-17T01:55:57.060Z,48.33
2016-03-17T01:56:57.265Z,48.13
2016-03-17T01:57:57.331Z,48.71
2016-03-17T01:58:57.380Z,48.71
2016-03-17T01:59:57.431Z,48.49
2016-03-17T02:00:57.480Z,48.3
2016-03-17T02:01:57.529Z,48.33
2016-03-17T02:02:57.578Z,48.33
2016-03-17T02:03:57.644Z,48.23
2016-03-17T02:04:57.693Z,48.71
2016-03-17T02:05:57.727Z,48.78
2016-03-17T02:06:57.808Z,48.59
2016-03-17T02:07:57.826Z,48.23
2016-03-17T02:08:57.876Z,48.49
2016-03-17T02:09:57.941Z,48.49
2016-03-17T02:10:57.975Z,48.69
2016-03-17T02:11:58.040Z,48.52
2016-03-17T02:12:58.091Z,48.59
2016-03-17T02:13:58.140Z,48.9
2016-03-17T02:14:58.174Z,48.71
2016-03-17T02:15:58.239Z,49.1
2016-03-17T02:16:58.288Z,48.61
2016-03-17T02:17:58.338Z,48.71
2016-03-17T02:18:58.403Z,48.71
2016-03-17T02:19:58.437Z,49.1
2016-03-17T02:20:58.487Z,48.4
2016-03-17T02:21:58.551Z,48.49
2016-03-17T02:22:58.602Z,48.61
2016-03-17T02:23:58.635Z,48.69
2016-03-17T02:24:58.716Z,48.4
2016-03-17T02:25:58.766Z,48.71
2016-03-17T02:26:58.800Z,48.88
2016-03-17T02:27:58.865Z,48.69
2016-03-17T02:28:58.914Z,48.49
2016-03-17T02:29:58.948Z,49.16
2016-03-17T02:30:58.998Z,48.78
2016-03-17T02:31:59.048Z,48.69
2016-03-17T02:32:59.097Z,48.78
2016-03-17T02:33:59.162Z,48.78
2016-03-17T02:34:59.196Z,48.78
2016-03-17T02:35:59.261Z,48.69
2016-03-17T02:36:59.311Z,48.78
2016-03-17T02:37:59.361Z,48.69
2016-03-17T02:38:59.411Z,48.59
2016-03-17T02:39:59.475Z,48.88
2016-03-17T02:40:59.509Z,48.78
2016-03-17T02:41:59.558Z,48.88
2016-03-17T02:42:59.624Z,48.97
2016-03-17T02:43:59.674Z,48.97
2016-03-17T02:44:59.707Z,49.07
2016-03-17T02:45:59.757Z,49.07
2016-03-17T02:46:59.807Z,49.16
2016-03-17T02:47:59.872Z,49.16
2016-03-17T02:48:59.921Z,49.16
2016-03-17T02:49:59.971Z,49.07
2016-03-17T02:51:00.021Z,48.97
2016-03-17T02:52:00.085Z,49.45
2016-03-17T02:53:00.121Z,49.45
2016-03-17T02:54:00.185Z,49.36
2016-03-17T02:55:00.235Z,49.07
2016-03-17T02:56:00.268Z,49.45
2016-03-17T02:57:00.318Z,49.26
2016-03-17T02:58:00.367Z,49.26
2016-03-17T02:59:00.418Z,49.26
2016-03-17T03:00:00.482Z,49.36
2016-03-17T03:01:00.516Z,49.26
2016-03-17T03:02:00.581Z,49.26
2016-03-17T03:03:00.631Z,48.97
2016-03-17T03:04:00.681Z,48.88
2016-03-17T03:05:00.746Z,48.88
2016-03-17T03:06:00.780Z,48.69
2016-03-17T03:07:00.829Z,48.78
2016-03-17T03:08:00.879Z,48.69
2016-03-17T03:09:00.929Z,49.07
2016-03-17T03:10:00.977Z,48.78
2016-03-17T03:11:01.043Z,48.69
2016-03-17T03:12:01.092Z,48.88
2016-03-17T03:13:01.142Z,48.69
2016-03-17T03:14:01.191Z,48.78
2016-03-17T03:15:01.241Z,49.07
2016-03-17T03:16:01.306Z,48.97
2016-03-17T03:17:01.371Z,48.78
2016-03-17T03:18:01.374Z,48.97
2016-03-17T03:19:01.440Z,48.88
2016-03-17T03:20:01.488Z,48.88
2016-03-17T03:21:01.523Z,48.97
2016-03-17T03:22:01.588Z,48.97
2016-03-17T03:23:01.638Z,48.88
2016-03-17T03:24:01.688Z,49.26
2016-03-17T03:25:01.769Z,49.65
2016-03-17T03:26:01.787Z,49.93
2016-03-17T03:27:01.837Z,49.65
2016-03-17T03:28:01.901Z,49.36
2016-03-17T03:29:01.951Z,49.36
2016-03-17T03:30:02.001Z,49.36
2016-03-17T03:31:02.065Z,49.45
2016-03-17T03:32:02.100Z,49.45
2016-03-17T03:33:02.148Z,49.36
2016-03-17T03:34:02.214Z,49.36
2016-03-17T03:35:02.264Z,49.74
2016-03-17T03:36:02.298Z,49.93
2016-03-17T03:37:02.364Z,49.74
2016-03-17T03:38:02.385Z,50.03
2016-03-17T03:39:02.437Z,49.84
2016-03-17T03:40:02.475Z,50.12
2016-03-17T03:41:02.512Z,50.03
2016-03-17T03:42:02.549Z,49.93
2016-03-17T03:43:02.595Z,49.55
2016-03-17T03:44:02.624Z,49.26
2016-03-17T03:45:02.686Z,49.55
2016-03-17T03:46:02.730Z,49.26
2016-03-17T03:47:02.775Z,49.45
2016-03-17T03:48:02.824Z,49.65
2016-03-17T03:49:02.872Z,49.36
2016-03-17T03:50:02.936Z,49.26
2016-03-17T03:51:02.983Z,49.16
2016-03-17T03:52:03.017Z,49.36
2016-03-17T03:53:03.081Z,49.93
2016-03-17T03:54:03.130Z,50.03
2016-03-17T03:55:03.178Z,49.84
2016-03-17T03:56:03.228Z,49.93
2016-03-17T03:57:03.276Z,49.84
2016-03-17T03:58:03.310Z,49.93
2016-03-17T03:59:03.391Z,49.84
2016-03-17T04:00:03.441Z,49.84
2016-03-17T04:01:03.474Z,49.65
2016-03-17T04:02:03.524Z,49.16
2016-03-17T04:03:03.589Z,49.26
2016-03-17T04:04:03.638Z,49.74
2016-03-17T04:05:03.672Z,49.74
2016-03-17T04:06:03.737Z,49.93
2016-03-17T04:07:03.787Z,49.93
2016-03-17T04:08:03.820Z,49.84
2016-03-17T04:09:03.886Z,49.93
2016-03-17T04:10:03.936Z,49.84
2016-03-17T04:11:03.970Z,50.12
2016-03-17T04:12:04.020Z,50.22
2016-03-17T04:13:04.084Z,49.84
2016-03-17T04:14:04.134Z,49.74
2016-03-17T04:15:04.200Z,49.84
2016-03-17T04:16:04.233Z,50.22
2016-03-17T04:17:04.298Z,49.93
2016-03-17T04:18:04.380Z,49.93
2016-03-17T04:19:04.382Z,50.12
2016-03-17T04:20:04.447Z,44.85
2016-03-17T04:21:04.496Z,42.82
2016-03-17T04:22:04.530Z,43.59
2016-03-17T04:23:04.596Z,43.49
2016-03-17T04:24:04.661Z,43.77
2016-03-17T04:25:04.680Z,44.43
2016-03-17T04:26:04.729Z,44.9
2016-03-17T04:27:04.794Z,47.3
2016-03-17T04:28:04.844Z,48.73
2016-03-17T04:29:04.894Z,48.44
2016-03-17T04:30:04.943Z,48.73
2016-03-17T04:31:05.008Z,48.93
2016-03-17T04:32:05.042Z,48.95
2016-03-17T04:33:05.091Z,49.24
2016-03-17T04:34:05.140Z,49.43
2016-03-17T04:35:05.190Z,49.05
2016-03-17T04:36:05.240Z,45.98
2016-03-17T04:37:05.289Z,44.54
2016-03-17T04:38:05.354Z,44.83
2016-03-17T04:39:05.404Z,47.11
2016-03-17T04:40:05.454Z,47.2
2016-03-17T04:41:05.504Z,47.68
2016-03-17T04:42:05.538Z,48.28
2016-03-17T04:43:05.603Z,48.57
2016-03-17T04:44:05.668Z,48.44
2016-03-17T04:45:05.702Z,48.66
2016-03-17T04:46:05.767Z,48.47
2016-03-17T04:47:05.817Z,48.47
2016-03-17T04:48:05.851Z,48.57
2016-03-17T04:49:05.900Z,48.57
2016-03-17T04:50:05.966Z,48.47
2016-03-17T04:51:05.999Z,48.66
2016-03-17T04:52:06.049Z,48.57
2016-03-17T04:53:06.098Z,48.57
2016-03-17T04:54:06.163Z,48.57
2016-03-17T04:55:06.229Z,48.47
2016-03-17T04:56:06.247Z,48.28
2016-03-17T04:57:06.312Z,48.28
2016-03-17T04:58:06.363Z,48.28
2016-03-17T04:59:06.396Z,48.38
2016-03-17T05:00:06.446Z,48.09
2016-03-17T05:01:06.510Z,48.3
2016-03-17T05:02:06.560Z,48.3
2016-03-17T05:03:06.594Z,48.21
2016-03-17T05:04:06.674Z,48.59
2016-03-17T05:05:06.709Z,48.69
2016-03-17T05:06:06.759Z,48.69
2016-03-17T05:07:06.807Z,48.78
2016-03-17T05:08:06.857Z,48.3
2016-03-17T05:09:06.922Z,48.59
2016-03-17T05:10:06.956Z,48.69
2016-03-17T05:11:07.006Z,48.69
2016-03-17T05:12:07.071Z,48.21
2016-03-17T05:13:07.106Z,48.21
2016-03-17T05:14:07.156Z,48.69
2016-03-17T05:15:07.048Z,48.49
2016-03-17T05:16:07.253Z,48.88
2016-03-17T05:17:07.304Z,48.69
2016-03-17T05:18:07.369Z,48.97
2016-03-17T05:19:07.419Z,49
2016-03-17T05:20:07.467Z,48.97
2016-03-17T05:21:07.502Z,48.9
2016-03-17T05:22:07.567Z,48.71
2016-03-17T05:23:07.617Z,48.52
2016-03-17T05:24:07.667Z,48.49
2016-03-17T05:25:07.700Z,48.8
2016-03-17T05:26:07.781Z,48.52
2016-03-17T05:27:07.830Z,48.52
2016-03-17T05:28:07.864Z,48.8
2016-03-17T05:29:07.946Z,48.52
2016-03-17T05:30:07.979Z,48.52
2016-03-17T05:31:08.013Z,49.38
2016-03-17T05:32:08.078Z,49.76
2016-03-17T05:33:08.128Z,50.05
2016-03-17T05:34:08.177Z,50.24
2016-03-17T05:35:08.227Z,50.15
2016-03-17T05:36:08.261Z,50.24
2016-03-17T05:37:08.326Z,50.73
2016-03-17T05:38:08.376Z,50.43
2016-03-17T05:39:08.410Z,50.15
2016-03-17T05:40:08.475Z,50.15
2016-03-17T05:41:08.524Z,50.63
2016-03-17T05:42:08.590Z,50.53
2016-03-17T05:43:08.624Z,50.53
2016-03-17T05:44:08.689Z,50.53
2016-03-17T05:45:08.723Z,50.75
2016-03-17T05:46:08.772Z,50.63
2016-03-17T05:47:08.837Z,50.56
2016-03-17T05:48:08.747Z,50.43
2016-03-17T05:49:08.920Z,50.17
2016-03-17T05:50:08.986Z,49.41
2016-03-17T05:51:09.035Z,49.19
2016-03-17T05:52:09.085Z,48.93
2016-03-17T05:53:09.150Z,48.54
2016-03-17T05:54:09.200Z,48.54
2016-03-17T05:55:09.250Z,48.83
2016-03-17T05:56:09.299Z,49.31
2016-03-17T05:57:09.349Z,49.48
2016-03-17T05:58:09.398Z,50.15
2016-03-17T05:59:09.447Z,49.69
2016-03-17T06:00:09.482Z,50.17
2016-03-17T06:01:09.547Z,49.79
2016-03-17T06:02:09.597Z,49.88
2016-03-17T06:03:09.646Z,50.08
2016-03-17T06:04:09.696Z,49.88
2016-03-17T06:05:09.746Z,50.17
2016-03-17T06:06:09.796Z,50.17
2016-03-17T06:07:09.829Z,50.37
2016-03-17T06:08:09.894Z,50.17
2016-03-17T06:09:09.943Z,50.27
2016-03-17T06:10:10.009Z,50.17
2016-03-17T06:11:10.043Z,50.84
2016-03-17T06:12:10.107Z,50.65
2016-03-17T06:13:10.157Z,50.65
2016-03-17T06:14:10.191Z,50.65
2016-03-17T06:15:10.241Z,50.65
2016-03-17T06:16:10.306Z,50.37
2016-03-17T06:17:10.356Z,50.17
2016-03-17T06:18:10.328Z,50.56
2016-03-17T06:19:10.470Z,50.65
2016-03-17T06:20:10.520Z,50.27
2016-03-17T06:21:10.554Z,49.98
2016-03-17T06:22:10.619Z,50.46
2016-03-17T06:23:10.669Z,50.27
2016-03-17T06:24:10.718Z,50.17
2016-03-17T06:25:10.752Z,50.56
2016-03-17T06:26:10.816Z,50.65
2016-03-17T06:27:10.866Z,50.56
2016-03-17T06:28:10.916Z,50.27
2016-03-17T06:29:10.965Z,50.68
2016-03-17T06:30:11.031Z,50.17
2016-03-17T06:31:11.065Z,50.56
2016-03-17T06:32:11.115Z,50.2
2016-03-17T06:33:11.243Z,49.91
2016-03-17T06:34:11.230Z,50.1
2016-03-17T06:35:11.279Z,50.39
2016-03-17T06:36:11.329Z,50.49
2016-03-17T06:37:11.397Z,50.29
2016-03-17T06:38:11.454Z,50.1
2016-03-17T06:39:11.488Z,50.2
2016-03-17T06:40:11.578Z,50.39
2016-03-17T06:41:11.580Z,50.49
2016-03-17T06:42:11.630Z,50.2
2016-03-17T06:43:11.664Z,50.29
2016-03-17T06:44:11.729Z,50.29
2016-03-17T06:45:11.778Z,50.29
2016-03-17T06:46:11.828Z,50.2
2016-03-17T06:47:11.877Z,50.39
2016-03-17T06:48:12.099Z,49.91
2016-03-17T06:49:12.024Z,49.43
2016-03-17T06:50:12.045Z,49.33
2016-03-17T06:51:12.094Z,49.33
2016-03-17T06:52:12.144Z,49.05
2016-03-17T06:53:12.210Z,49.33
2016-03-17T06:54:12.243Z,49.15
2016-03-17T06:55:12.293Z,49.33
2016-03-17T06:56:12.357Z,49.72
2016-03-17T06:57:12.392Z,49.91
2016-03-17T06:58:12.441Z,50.01
2016-03-17T06:59:12.490Z,49.72
2016-03-17T07:00:12.557Z,50.01
2016-03-17T07:01:12.606Z,50.2
2016-03-17T07:02:12.655Z,50.01
2016-03-17T07:03:12.751Z,50.29
2016-03-17T07:04:12.754Z,50.1
2016-03-17T07:05:12.804Z,49.82
2016-03-17T07:06:12.853Z,50.1
2016-03-17T07:07:12.903Z,50.2
2016-03-17T07:08:12.953Z,50.1
2016-03-17T07:09:13.003Z,50.01
2016-03-17T07:10:13.068Z,50.01
2016-03-17T07:11:13.117Z,50.01
2016-03-17T07:12:13.167Z,49.91
2016-03-17T07:13:13.217Z,49.26
2016-03-17T07:14:13.266Z,48.3
2016-03-17T07:15:13.331Z,46.48
2016-03-17T07:16:13.380Z,39.64
2016-03-17T07:17:13.414Z,35.51
2016-03-17T07:18:13.511Z,33.58
2016-03-17T07:19:13.545Z,35.57
2016-03-17T07:20:13.579Z,37.87
2016-03-17T07:21:13.628Z,40.06
2016-03-17T07:22:13.693Z,40.25
2016-03-17T07:23:13.712Z,42.57
2016-03-17T07:24:13.793Z,43.34
2016-03-17T07:25:13.843Z,44.11
2016-03-17T07:26:13.892Z,44.11
2016-03-17T07:27:13.927Z,44.61
2016-03-17T07:28:14.007Z,44.7
2016-03-17T07:29:14.025Z,38.85
2016-03-17T07:30:14.090Z,39.14
2016-03-17T07:31:14.155Z,39.7
2016-03-17T07:32:14.190Z,40.47
2016-03-17T07:33:14.240Z,43.13
2016-03-17T07:34:14.304Z,44.01
2016-03-17T07:35:14.353Z,44.68
2016-03-17T07:36:14.403Z,44.78
2016-03-17T07:37:14.453Z,44.97
2016-03-17T07:38:14.534Z,44.61
2016-03-17T07:39:14.552Z,42.71
2016-03-17T07:40:14.633Z,41.56
2016-03-17T07:41:14.650Z,40.33
2016-03-17T07:42:14.716Z,39.08
2016-03-17T07:43:14.766Z,38.53
2016-03-17T07:44:14.815Z,36.8
2016-03-17T07:45:14.865Z,35.76
2016-03-17T07:46:14.930Z,34.72
2016-03-17T07:47:15.089Z,34.33
2016-03-17T07:48:15.014Z,33.29
2016-03-17T07:49:15.078Z,32.62
2016-03-17T07:50:15.113Z,32.23
2016-03-17T07:51:15.163Z,31.96
2016-03-17T07:52:15.243Z,31.49
2016-03-17T07:53:15.293Z,30.45
2016-03-17T07:54:15.341Z,29.87
2016-03-17T07:55:15.392Z,29.21
2016-03-17T07:56:15.441Z,28.15
2016-03-17T07:57:15.507Z,27.59
2016-03-17T07:58:15.541Z,27.39
2016-03-17T07:59:15.605Z,26.73
2016-03-17T08:00:15.671Z,26.75
2016-03-17T08:01:15.720Z,25.2
2016-03-17T08:02:15.770Z,23.57
2016-03-17T08:03:15.835Z,23.3
2016-03-17T08:04:15.885Z,21.2
2016-03-17T08:05:15.950Z,20.24
2016-03-17T08:06:15.999Z,19.78
2016-03-17T08:07:16.039Z,18.43
2016-03-17T08:08:16.103Z,18.33
2016-03-17T08:09:16.153Z,17.47
2016-03-17T08:10:16.203Z,16.13
2016-03-17T08:11:16.253Z,15.75
2016-03-17T08:12:16.303Z,16.44
2016-03-17T08:13:16.351Z,17.6
2016-03-17T08:14:16.417Z,18.16
2016-03-17T08:15:16.467Z,18.63
2016-03-17T08:16:16.531Z,19.3
2016-03-17T08:17:16.597Z,18.71
2016-03-17T08:18:16.630Z,19.58
2016-03-17T08:19:16.681Z,19.29
2016-03-17T08:20:16.730Z,20.06
2016-03-17T08:21:16.795Z,20.34
2016-03-17T08:22:16.844Z,20.14
2016-03-17T08:23:16.894Z,19.47
2016-03-17T08:24:16.959Z,18.81
2016-03-17T08:25:17.008Z,18.24
2016-03-17T08:26:17.058Z,19.02
2016-03-17T08:27:17.124Z,20.07
2016-03-17T08:28:17.174Z,19.67
2016-03-17T08:29:17.223Z,21.5
2016-03-17T08:30:17.272Z,21.19
2016-03-17T08:31:17.337Z,22.43
2016-03-17T08:32:17.387Z,22.52
2016-03-17T08:33:17.421Z,23.28
2016-03-17T08:34:17.487Z,24.05
2016-03-17T08:35:17.536Z,24.14
2016-03-17T08:36:17.586Z,24.51
2016-03-17T08:37:20.635Z,24.9
2016-03-17T08:38:17.701Z,25.08
2016-03-17T08:39:17.751Z,26.43
2016-03-17T08:40:17.643Z,25.85
2016-03-17T08:41:17.865Z,26.12
2016-03-17T08:42:17.914Z,27.57
2016-03-17T08:43:17.963Z,27.46
2016-03-17T08:44:18.014Z,28.33
2016-03-17T08:45:18.062Z,29.76
2016-03-17T08:46:18.128Z,30.8
2016-03-17T08:47:18.177Z,32.04
2016-03-17T08:48:18.227Z,33.07
2016-03-17T08:49:18.292Z,33.44
2016-03-17T08:50:18.342Z,33.91
2016-03-17T08:51:18.375Z,33.61
2016-03-17T08:52:18.441Z,33.62
2016-03-17T08:53:18.491Z,32.95
2016-03-17T08:54:18.556Z,32.47
2016-03-17T08:55:18.589Z,31.82
2016-03-17T08:56:18.671Z,31.05
2016-03-17T08:57:18.704Z,31.05
2016-03-17T08:58:18.769Z,31.05
2016-03-17T08:59:18.788Z,30.68
2016-03-17T09:00:18.838Z,30.58
2016-03-17T09:01:18.934Z,30.49
2016-03-17T09:02:18.952Z,30.77
2016-03-17T09:03:19.001Z,30.49
2016-03-17T09:04:19.068Z,30.39
2016-03-17T09:05:19.101Z,30.29
2016-03-17T09:06:19.171Z,29.93
2016-03-17T09:07:19.220Z,30.49
2016-03-17T09:08:19.271Z,29.62
2016-03-17T09:09:19.320Z,29.81
2016-03-17T09:10:19.370Z,29.62
2016-03-17T09:11:19.419Z,30.19
2016-03-17T09:12:19.531Z,29.62
2016-03-17T09:13:19.628Z,29.81
2016-03-17T09:14:19.599Z,29.62
2016-03-17T09:15:19.648Z,30.29
2016-03-17T09:16:19.698Z,29.91
2016-03-17T09:17:19.747Z,29.43
2016-03-17T09:18:19.781Z,29.72
2016-03-17T09:19:19.846Z,30
2016-03-17T09:20:22.818Z,30.29
2016-03-17T09:21:19.930Z,30.29
2016-03-17T09:22:20.010Z,30.1
2016-03-17T09:23:20.045Z,30.1
2016-03-17T09:24:20.094Z,29.91
2016-03-17T09:25:20.238Z,30.29
2016-03-17T09:26:20.195Z,30.58
2016-03-17T09:27:20.244Z,30.49
2016-03-17T09:28:20.325Z,29.43
2016-03-17T09:29:20.359Z,30.19
2016-03-17T09:30:20.411Z,29.43
2016-03-17T09:31:20.476Z,29.91
2016-03-17T09:32:20.526Z,30.08
2016-03-17T09:33:20.576Z,29.99
2016-03-17T09:34:20.625Z,30.38
2016-03-17T09:35:20.675Z,29.91
2016-03-17T09:36:20.740Z,30.47
2016-03-17T09:37:20.789Z,30.47
2016-03-17T09:38:20.824Z,30.47
2016-03-17T09:39:20.889Z,30.38
2016-03-17T09:40:20.939Z,30.28
2016-03-17T09:41:20.988Z,30.38
2016-03-17T09:42:21.053Z,29.9
2016-03-17T09:43:21.102Z,30.38
2016-03-17T09:44:21.136Z,30.28
2016-03-17T09:45:21.186Z,30.18
2016-03-17T09:46:21.251Z,30.08
2016-03-17T09:47:21.285Z,29.99
2016-03-17T09:48:21.335Z,30.18
2016-03-17T09:49:21.385Z,30.28
2016-03-17T09:50:21.449Z,30.38
2016-03-17T09:51:21.499Z,30.47
2016-03-17T09:52:21.549Z,30.47
2016-03-17T09:53:21.693Z,29.99
2016-03-17T09:54:21.664Z,29.99
2016-03-17T09:55:21.712Z,30.28
2016-03-17T09:56:21.778Z,30.28
2016-03-17T09:57:21.829Z,30.47
2016-03-17T09:58:21.862Z,30.38
2016-03-17T09:59:21.927Z,30.38
2016-03-17T10:00:21.976Z,30.38
2016-03-17T10:01:22.026Z,30.28
2016-03-17T10:02:22.076Z,31.72
2016-03-17T10:03:22.125Z,32.28
2016-03-17T10:04:22.175Z,33.32
2016-03-17T10:05:22.225Z,33.59
2016-03-17T10:06:22.289Z,33.96
2016-03-17T10:07:22.323Z,33.67
2016-03-17T10:08:22.389Z,33.77
2016-03-17T10:09:22.439Z,33.48
2016-03-17T10:10:22.488Z,32.82
2016-03-17T10:11:22.552Z,32.92
2016-03-17T10:12:22.619Z,32.64
2016-03-17T10:13:22.669Z,32.65
2016-03-17T10:14:22.685Z,31.98
2016-03-17T10:15:22.752Z,31.69
2016-03-17T10:16:22.801Z,31.3
2016-03-17T10:17:22.835Z,31.4
2016-03-17T10:18:22.899Z,31.02
2016-03-17T10:19:22.965Z,31.3
2016-03-17T10:20:23.015Z,31.03
2016-03-17T10:21:23.065Z,30.93
2016-03-17T10:22:23.113Z,30.93
2016-03-17T10:23:23.163Z,30.93
2016-03-17T10:24:23.228Z,30.74
2016-03-17T10:25:23.278Z,30.36
2016-03-17T10:26:23.312Z,30.26
2016-03-17T10:27:23.362Z,29.97
2016-03-17T10:28:23.412Z,30.36
2016-03-17T10:29:23.461Z,30.17
2016-03-17T10:30:23.526Z,29.79
2016-03-17T10:31:23.575Z,29.4
2016-03-17T10:32:23.626Z,29.69
2016-03-17T10:33:23.690Z,29.4
2016-03-17T10:34:23.739Z,29.4
2016-03-17T10:35:23.789Z,29.59
2016-03-17T10:36:23.839Z,29.49
2016-03-17T10:37:23.904Z,29.49
2016-03-17T10:38:23.923Z,29.49
2016-03-17T10:39:24.003Z,29.79
2016-03-17T10:40:24.037Z,29.77
2016-03-17T10:41:24.086Z,30.65
2016-03-17T10:42:24.167Z,29.48
2016-03-17T10:43:24.186Z,29.69
2016-03-17T10:44:24.236Z,30.36
2016-03-17T10:45:24.300Z,29.49
2016-03-17T10:46:24.350Z,29.3
2016-03-17T10:47:24.400Z,29.11
2016-03-17T10:48:24.466Z,29.49
2016-03-17T10:49:24.515Z,28.72
2016-03-17T10:50:24.564Z,28.71
2016-03-17T10:51:24.613Z,28.52
2016-03-17T10:52:24.663Z,28.33
2016-03-17T10:53:24.697Z,28.23
2016-03-17T10:54:24.763Z,28.42
2016-03-17T10:55:24.812Z,28.61
2016-03-17T10:56:24.862Z,27.94
2016-03-17T10:57:24.926Z,28.04
2016-03-17T10:58:24.977Z,28.23
2016-03-17T10:59:25.026Z,28.52
2016-03-17T11:00:25.076Z,28.61
2016-03-17T11:01:25.140Z,28.52
2016-03-17T11:02:25.159Z,28.71
2016-03-17T11:03:25.224Z,28.71
2016-03-17T11:04:25.289Z,28.71
2016-03-17T11:05:25.339Z,28.23
2016-03-17T11:06:25.389Z,28.71
2016-03-17T11:07:25.423Z,28.52
2016-03-17T11:08:25.487Z,28.91
2016-03-17T11:09:25.539Z,28.52
2016-03-17T11:10:25.590Z,28.71
2016-03-17T11:11:25.623Z,29.1
2016-03-17T11:12:25.704Z,28.42
2016-03-17T11:13:25.739Z,28.52
2016-03-17T11:14:25.788Z,28.52
2016-03-17T11:15:25.854Z,28.91
2016-03-17T11:16:25.903Z,29.19
2016-03-17T11:17:25.952Z,28.61
2016-03-17T11:18:26.002Z,28.91
2016-03-17T11:19:26.052Z,29.48
2016-03-17T11:20:26.116Z,28.71
2016-03-17T11:21:26.167Z,28.52
2016-03-17T11:22:26.199Z,28.52
2016-03-17T11:23:26.266Z,29.1
2016-03-17T11:24:26.315Z,28.61
2016-03-17T11:25:26.364Z,28.61
2016-03-17T11:26:26.413Z,28.52
2016-03-17T11:27:26.480Z,29.38
2016-03-17T11:28:26.513Z,29.48
2016-03-17T11:29:26.579Z,29.48
2016-03-17T11:30:26.613Z,29.19
2016-03-17T11:31:26.677Z,28.81
2016-03-17T11:32:26.726Z,29
2016-03-17T11:33:26.776Z,29.38
2016-03-17T11:34:26.842Z,28.71
2016-03-17T11:35:26.891Z,29.1
2016-03-17T11:36:26.926Z,28.52
2016-03-17T11:37:26.990Z,28.91
2016-03-17T11:38:27.040Z,28.22
2016-03-17T11:39:27.090Z,29.47
2016-03-17T11:40:27.140Z,30.32
2016-03-17T11:41:27.204Z,30.79
2016-03-17T11:42:27.239Z,30.99
2016-03-17T11:43:27.287Z,31.2
2016-03-17T11:44:27.337Z,31.77
2016-03-17T11:45:27.403Z,31.67
2016-03-17T11:46:27.453Z,31.58
2016-03-17T11:47:27.502Z,31.38
2016-03-17T11:48:27.567Z,31.77
2016-03-17T11:49:27.617Z,31.48
2016-03-17T11:50:27.650Z,31.2
2016-03-17T11:51:27.716Z,31.38
2016-03-17T11:52:27.766Z,31.4
2016-03-17T11:53:27.799Z,31.59
2016-03-17T11:54:27.849Z,31.59
2016-03-17T11:55:27.913Z,31.69
2016-03-17T11:56:27.963Z,31.59
2016-03-17T11:57:28.013Z,31.59
2016-03-17T11:58:28.063Z,31.79
2016-03-17T11:59:28.113Z,31.98
2016-03-17T12:00:28.177Z,32.07
2016-03-17T12:01:28.216Z,32.07
2016-03-17T12:02:28.265Z,31.88
2016-03-17T12:03:28.331Z,32.07
2016-03-17T12:04:28.396Z,32.07
2016-03-17T12:05:28.429Z,32.07
2016-03-17T12:06:28.479Z,32.07
2016-03-17T12:07:28.545Z,32.26
2016-03-17T12:08:28.579Z,32.26
2016-03-17T12:09:28.645Z,32.38
2016-03-17T12:10:28.693Z,32.55
2016-03-17T12:11:28.742Z,32.57
2016-03-17T12:12:28.792Z,32.36
2016-03-17T12:13:28.843Z,32.46
2016-03-17T12:14:28.892Z,32.86
2016-03-17T12:15:28.956Z,32.75
2016-03-17T12:16:28.991Z,33.03
2016-03-17T12:17:29.041Z,32.93
2016-03-17T12:18:29.105Z,32.93
2016-03-17T12:19:29.186Z,33.05
2016-03-17T12:20:29.189Z,32.36
2016-03-17T12:21:29.239Z,32.65
2016-03-17T12:22:29.304Z,33.13
2016-03-17T12:23:29.353Z,33.05
2016-03-17T12:24:29.403Z,32.93
2016-03-17T12:25:28.731Z,33.15
2016-03-17T12:26:29.533Z,33.03
2016-03-17T12:27:29.568Z,33.42
2016-03-17T12:28:29.616Z,33.23
2016-03-17T12:29:29.682Z,32.93
2016-03-17T12:30:29.716Z,33.9
2016-03-17T12:31:29.782Z,33.7
2016-03-17T12:32:29.674Z,33.7
2016-03-17T12:33:29.865Z,33.34
2016-03-17T12:34:30.039Z,33.7
2016-03-17T12:35:29.995Z,33.82
2016-03-17T12:36:30.029Z,33.7
2016-03-17T12:37:30.079Z,33.7
2016-03-17T12:38:30.143Z,33.7
2016-03-17T12:39:30.193Z,33.7
2016-03-17T12:40:30.243Z,34.28
2016-03-17T12:41:30.292Z,34.2
2016-03-17T12:42:30.343Z,34.49
2016-03-17T12:43:30.385Z,34.28
2016-03-17T12:44:30.423Z,34.47
2016-03-17T12:45:30.460Z,34.19
2016-03-17T12:46:30.496Z,34.39
2016-03-17T12:47:30.549Z,34.28
2016-03-17T12:48:30.576Z,34.3
2016-03-17T12:49:30.652Z,34.68
2016-03-17T12:50:30.698Z,34.47
2016-03-17T12:51:30.727Z,34.28
2016-03-17T12:52:30.788Z,34.67
2016-03-17T12:53:30.835Z,34.38
2016-03-17T12:54:30.883Z,34.78
2016-03-17T12:55:30.931Z,34.67
2016-03-17T12:56:30.979Z,34.67